createdAt,value
2019-04-22T00:05:14.350Z,2.10
2019-04-22T00:11:46.558Z,2.40
2019-04-22T00:14:28.408Z,2.67
2019-04-22T00:17:38.708Z,2.60
2019-04-22T00:20:22.974Z,2.90
2019-04-22T00:23:15.611Z,2.50
2019-04-22T00:29:21.048Z,2.30
2019-04-22T00:32:24.340Z,2.70
2019-04-22T00:35:18.079Z,2.70
2019-04-22T00:38:20.372Z,2.60
2019-04-22T00:41:08.212Z,2.20
2019-04-22T00:44:31.815Z,2.23
2019-04-22T00:47:23.230Z,2.43
2019-04-22T00:53:23.995Z,2.30
2019-04-22T00:56:17.124Z,2.40
2019-04-22T00:59:11.468Z,2.37
2019-04-22T01:09:10.881Z,2.57
2019-04-22T01:12:01.992Z,2.47
2019-04-22T01:18:29.459Z,2.37
2019-04-22T01:21:27.532Z,2.23
2019-04-22T01:24:26.258Z,2.47
2019-04-22T01:27:11.700Z,2.30
2019-04-22T01:30:07.278Z,2.00
2019-04-22T01:32:47.223Z,2.30
2019-04-22T01:35:50.726Z,2.20
2019-04-22T01:38:45.646Z,2.20
2019-04-22T01:44:45.332Z,2.60
2019-04-22T01:47:39.513Z,2.23
2019-04-22T01:50:31.745Z,2.23
2019-04-22T01:53:36.059Z,2.23
2019-04-22T01:56:19.501Z,2.50
2019-04-22T01:59:08.514Z,3.23
2019-04-22T02:05:04.800Z,1.83
2019-04-22T02:08:02.514Z,1.97
2019-04-22T02:10:54.399Z,2.30
2019-04-22T02:13:42.799Z,2.53
2019-04-22T02:25:33.470Z,2.30
2019-04-22T02:34:32.866Z,2.23
2019-04-22T02:37:45.088Z,2.07
2019-04-22T02:40:58.466Z,2.00
2019-04-22T02:49:25.187Z,2.00
2019-04-22T02:53:01.266Z,2.00
2019-04-22T02:56:02.591Z,2.23
2019-04-22T02:59:34.877Z,2.17
2019-04-22T03:06:21.870Z,2.20
2019-04-22T03:08:51.697Z,1.97
2019-04-22T03:11:38.084Z,2.20
2019-04-22T03:14:22.813Z,2.33
2019-04-22T03:27:21.910Z,2.00
2019-04-22T03:36:58.330Z,2.00
2019-04-22T03:42:32.578Z,2.10
2019-04-22T03:45:32.057Z,1.93
2019-04-22T03:48:17.674Z,2.00
2019-04-22T03:51:16.413Z,1.97
2019-04-22T03:57:49.264Z,2.00
2019-04-22T04:17:13.105Z,2.40
2019-04-22T04:20:10.570Z,2.07
2019-04-22T04:26:45.899Z,2.30
2019-04-22T04:32:38.648Z,2.37
2019-04-22T04:35:23.215Z,2.30
2019-04-22T04:38:42.972Z,2.30
2019-04-22T04:52:50.917Z,2.40
2019-04-22T04:55:28.712Z,2.30
2019-04-22T04:58:36.590Z,2.10
2019-04-22T05:10:39.226Z,2.13
2019-04-22T05:13:10.418Z,2.10
2019-04-22T05:16:17.438Z,2.20
2019-04-22T05:18:59.199Z,2.43
2019-04-22T05:21:48.543Z,2.40
2019-04-22T05:27:36.321Z,1.90
2019-04-22T05:30:26.578Z,2.17
2019-04-22T05:33:08.725Z,1.97
2019-04-22T05:36:10.184Z,1.93
2019-04-22T05:38:53.498Z,2.40
2019-04-22T05:41:45.970Z,2.00
2019-04-22T05:44:47.757Z,2.10
2019-04-22T05:48:00.982Z,2.10
2019-04-22T05:50:57.947Z,2.00
2019-04-22T05:53:40.488Z,2.00
2019-04-22T05:56:47.724Z,2.00
2019-04-22T06:00:06.346Z,2.17
2019-04-22T06:02:56.626Z,2.17
2019-04-22T06:05:47.830Z,2.00
2019-04-22T06:08:32.584Z,2.30
2019-04-22T06:11:28.486Z,2.00
2019-04-22T06:14:12.377Z,2.17
2019-04-22T06:17:08.292Z,2.03
2019-04-22T06:20:00.630Z,2.00
2019-04-22T06:29:09.283Z,1.97
2019-04-22T06:35:28.069Z,2.13
2019-04-22T06:38:28.579Z,2.10
2019-04-22T06:47:14.983Z,1.90
2019-04-22T06:50:03.944Z,2.00
2019-04-22T06:52:56.770Z,1.90
2019-04-22T06:55:47.083Z,1.90
2019-04-22T06:58:36.895Z,2.60
2019-04-22T07:01:31.844Z,1.90
2019-04-22T07:04:30.332Z,2.20
2019-04-22T07:07:18.680Z,2.00
2019-04-22T07:10:26.848Z,2.37
2019-04-22T07:13:01.551Z,2.17
2019-04-22T07:19:02.567Z,1.73
2019-04-22T07:21:37.659Z,2.20
2019-04-22T07:24:40.585Z,2.17
2019-04-22T07:30:31.376Z,1.77
2019-04-22T07:39:23.503Z,1.90
2019-04-22T07:52:03.341Z,1.97
2019-04-22T07:54:58.519Z,2.07
2019-04-22T07:58:10.191Z,2.00
2019-04-22T08:00:38.560Z,1.97
2019-04-22T08:03:51.683Z,2.70
2019-04-22T08:06:17.330Z,2.20
2019-04-22T08:09:16.434Z,1.97
2019-04-22T08:15:53.737Z,1.93
2019-04-22T08:18:45.631Z,2.63
2019-04-22T08:21:38.470Z,2.27
2019-04-22T08:24:37.522Z,2.10
2019-04-22T08:27:20.888Z,1.80
2019-04-22T08:33:04.691Z,2.13
2019-04-22T08:36:07.241Z,1.90
2019-04-22T08:38:55.980Z,1.80
2019-04-22T08:41:43.774Z,2.20
2019-04-22T08:44:49.663Z,2.10
2019-04-22T08:50:10.380Z,2.10
2019-04-22T08:53:02.122Z,1.80
2019-04-22T08:55:51.556Z,1.90
2019-04-22T08:58:35.884Z,1.00
2019-04-22T09:01:23.896Z,1.73
2019-04-22T09:04:10.003Z,1.90
2019-04-22T09:07:12.409Z,1.83
2019-04-22T09:09:53.952Z,2.10
2019-04-22T09:12:53.293Z,2.20
2019-04-22T09:15:30.884Z,1.97
2019-04-22T09:21:15.293Z,2.20
2019-04-22T09:26:49.167Z,1.93
2019-04-22T09:29:40.073Z,1.97
2019-04-22T09:32:31.722Z,2.37
2019-04-22T09:35:20.985Z,2.47
2019-04-22T09:38:18.934Z,3.23
2019-04-22T09:40:51.865Z,2.20
2019-04-22T09:43:50.740Z,1.87
2019-04-22T09:46:39.271Z,2.40
2019-04-22T09:49:28.415Z,2.03
2019-04-22T09:52:10.201Z,2.30
2019-04-22T09:55:26.874Z,2.60
2019-04-22T09:58:09.518Z,2.50
2019-04-22T10:01:20.214Z,2.20
2019-04-22T10:06:45.565Z,2.40
2019-04-22T10:12:36.913Z,2.43
2019-04-22T10:15:23.041Z,2.40
2019-04-22T10:18:29.927Z,2.40
2019-04-22T10:21:37.186Z,2.20
2019-04-22T10:24:13.805Z,2.23
2019-04-22T10:27:14.039Z,2.30
2019-04-22T10:30:04.299Z,2.20
2019-04-22T10:33:02.804Z,2.13
2019-04-22T10:35:34.545Z,2.30
2019-04-22T10:38:26.461Z,2.33
2019-04-22T10:41:16.733Z,2.20
2019-04-22T10:47:42.351Z,1.83
2019-04-22T10:50:38.041Z,3.87
2019-04-22T10:53:31.307Z,2.43
2019-04-22T10:56:20.870Z,2.07
2019-04-22T10:59:18.491Z,1.93
2019-04-22T11:02:09.790Z,2.20
2019-04-22T11:05:06.137Z,2.00
2019-04-22T11:08:05.924Z,2.30
2019-04-22T11:11:21.522Z,2.10
2019-04-22T11:14:04.443Z,1.90
2019-04-22T11:19:55.884Z,2.37
2019-04-22T11:22:49.028Z,2.50
2019-04-22T11:25:46.063Z,2.10
2019-04-22T11:28:31.668Z,2.10
2019-04-22T11:31:24.220Z,2.23
2019-04-22T11:34:22.837Z,2.40
2019-04-22T11:41:03.504Z,2.70
2019-04-22T11:44:03.099Z,2.10
2019-04-22T11:47:25.442Z,2.00
2019-04-22T11:50:12.196Z,2.00
2019-04-22T11:53:02.745Z,2.20
2019-04-22T11:56:34.922Z,2.43
2019-04-22T12:02:33.114Z,2.20
2019-04-22T12:05:21.814Z,2.83
2019-04-22T12:08:27.096Z,2.03
2019-04-22T12:11:16.611Z,2.33
2019-04-22T12:14:34.066Z,3.07
2019-04-22T12:17:22.380Z,2.50
2019-04-22T12:20:41.418Z,2.70
2019-04-22T12:23:30.059Z,2.80
2019-04-22T12:26:48.382Z,2.60
2019-04-22T12:30:43.529Z,3.23
2019-04-22T12:32:48.420Z,2.70
2019-04-22T12:35:34.589Z,3.07
2019-04-22T12:38:24.661Z,3.07
2019-04-22T12:41:17.785Z,3.03
2019-04-22T12:44:42.381Z,2.97
2019-04-22T12:47:07.584Z,3.20
2019-04-22T12:50:11.847Z,3.30
2019-04-22T12:52:57.286Z,3.07
2019-04-22T12:55:57.332Z,3.30
2019-04-22T13:02:13.448Z,3.17
2019-04-22T13:05:10.120Z,3.13
2019-04-22T13:15:09.803Z,2.33
2019-04-22T13:18:16.913Z,2.60
2019-04-22T13:21:06.542Z,3.07
2019-04-22T13:23:59.416Z,2.80
2019-04-22T13:26:50.720Z,2.67
2019-04-22T13:33:12.640Z,2.30
2019-04-22T13:36:34.605Z,2.20
2019-04-22T13:39:23.181Z,2.03
2019-04-22T13:42:19.059Z,2.30
2019-04-22T13:45:05.314Z,2.30
2019-04-22T13:48:12.977Z,2.23
2019-04-22T13:51:20.787Z,2.00
2019-04-22T13:54:37.131Z,2.40
2019-04-22T14:00:03.849Z,2.07
2019-04-22T14:03:44.757Z,2.57
2019-04-22T14:07:08.251Z,2.40
2019-04-22T14:10:08.774Z,2.30
2019-04-22T14:13:01.894Z,2.40
2019-04-22T14:15:52.933Z,2.67
2019-04-22T14:18:45.919Z,2.40
2019-04-22T14:21:35.012Z,3.08
2019-04-22T14:24:24.035Z,2.40
2019-04-22T14:27:21.748Z,2.57
2019-04-22T14:30:10.517Z,2.43
2019-04-22T14:32:58.546Z,2.33
2019-04-22T14:36:07.196Z,2.43
2019-04-22T14:38:59.492Z,2.57
2019-04-22T14:42:12.073Z,2.40
2019-04-22T14:45:23.759Z,2.30
2019-04-22T14:48:11.135Z,5.23
2019-04-22T14:50:51.785Z,2.63
2019-04-22T14:53:44.792Z,2.50
2019-04-22T14:56:13.676Z,2.33
2019-04-22T14:59:02.955Z,2.67
2019-04-22T15:01:53.940Z,1.93
2019-04-22T15:04:41.603Z,2.30
2019-04-22T15:07:30.699Z,2.23
2019-04-22T15:10:20.197Z,1.20
2019-04-22T15:13:09.407Z,2.83
2019-04-22T15:16:18.253Z,3.17
2019-04-22T15:19:27.770Z,2.60
2019-04-22T15:22:16.674Z,2.90
2019-04-22T15:25:05.302Z,3.30
2019-04-22T15:27:53.326Z,2.87
2019-04-22T15:30:41.756Z,3.00
2019-04-22T15:33:29.644Z,3.07
2019-04-22T15:36:22.067Z,3.07
2019-04-22T15:39:11.239Z,2.87
2019-04-22T15:42:11.353Z,2.70
2019-04-22T15:44:48.157Z,3.07
2019-04-22T15:47:38.034Z,3.03
2019-04-22T15:54:03.579Z,2.67
2019-04-22T15:56:59.025Z,3.30
2019-04-22T16:03:16.601Z,2.83
2019-04-22T16:06:04.313Z,2.90
2019-04-22T16:08:52.294Z,3.07
2019-04-22T16:11:40.376Z,3.50
2019-04-22T16:14:35.180Z,2.20
2019-04-22T16:17:16.984Z,3.13
2019-04-22T16:20:05.132Z,3.63
2019-04-22T16:23:03.498Z,2.77
2019-04-22T16:25:58.937Z,3.30
2019-04-22T16:28:47.349Z,3.60
2019-04-22T16:31:43.595Z,3.17
2019-04-22T16:34:33.988Z,3.00
2019-04-22T16:37:23.054Z,2.60
2019-04-22T16:40:10.706Z,2.70
2019-04-22T16:43:02.900Z,2.67
2019-04-22T16:45:47.704Z,2.60
2019-04-22T16:48:35.852Z,2.47
2019-04-22T16:51:24.418Z,3.67
2019-04-22T16:54:12.016Z,2.50
2019-04-22T16:57:01.743Z,2.50
2019-04-22T16:59:50.685Z,3.00
2019-04-22T17:03:02.874Z,2.57
2019-04-22T17:06:13.739Z,2.80
2019-04-22T17:09:02.640Z,2.83
2019-04-22T17:12:06.105Z,2.87
2019-04-22T17:14:58.570Z,2.63
2019-04-22T17:17:51.593Z,2.67
2019-04-22T17:20:40.464Z,2.93
2019-04-22T17:27:14.671Z,3.53
2019-04-22T17:30:06.732Z,3.27
2019-04-22T17:33:37.125Z,3.23
2019-04-22T17:36:26.509Z,3.10
2019-04-22T17:39:40.410Z,2.70
2019-04-22T17:42:38.281Z,3.50
2019-04-22T17:45:47.695Z,3.50
2019-04-22T17:48:53.510Z,3.17
2019-04-22T17:51:47.738Z,3.10
2019-04-22T17:54:51.605Z,3.23
2019-04-22T17:57:52.691Z,3.33
2019-04-22T18:03:29.108Z,3.87
2019-04-22T18:06:25.985Z,3.70
2019-04-22T18:09:41.201Z,3.40
2019-04-22T18:12:29.175Z,4.57
2019-04-22T18:15:13.382Z,4.10
2019-04-22T18:18:12.395Z,4.40
2019-04-22T18:20:50.702Z,4.63
2019-04-22T18:23:31.053Z,5.20
2019-04-22T18:26:37.326Z,4.20
2019-04-22T18:29:31.108Z,4.17
2019-04-22T18:32:08.807Z,4.27
2019-04-22T18:35:00.890Z,3.97
2019-04-22T18:37:55.781Z,4.07
2019-04-22T18:40:38.401Z,4.10
2019-04-22T18:43:33.968Z,4.63
2019-04-22T18:46:30.120Z,4.13
2019-04-22T18:49:16.610Z,4.53
2019-04-22T18:52:29.577Z,4.17
2019-04-22T18:55:26.818Z,5.00
2019-04-22T18:58:18.746Z,4.47
2019-04-22T19:04:24.726Z,5.13
2019-04-22T19:07:58.770Z,4.57
2019-04-22T19:14:07.440Z,4.80
2019-04-22T19:17:07.374Z,4.80
2019-04-22T19:22:57.716Z,5.00
2019-04-22T19:25:38.368Z,5.00
2019-04-22T19:28:46.485Z,4.97
2019-04-22T19:34:17.794Z,4.83
2019-04-22T19:37:11.802Z,4.63
2019-04-22T19:40:08.198Z,5.20
2019-04-22T19:43:04.081Z,4.50
2019-04-22T19:45:43.098Z,5.37
2019-04-22T19:48:35.867Z,5.33
2019-04-22T19:51:38.438Z,5.47
2019-04-22T19:54:34.174Z,5.37
2019-04-22T19:57:17.380Z,5.27
2019-04-22T20:00:14.676Z,5.50
2019-04-22T20:06:48.659Z,5.40
2019-04-22T20:09:49.363Z,5.50
2019-04-22T20:12:30.893Z,5.97
2019-04-22T20:15:18.803Z,5.43
2019-04-22T20:18:35.712Z,6.00
2019-04-22T20:21:17.848Z,5.77
2019-04-22T20:23:55.238Z,6.20
2019-04-22T20:27:21.293Z,5.93
2019-04-22T20:30:09.895Z,6.10
2019-04-22T20:32:54.224Z,5.90
2019-04-22T20:35:54.431Z,6.63
2019-04-22T20:38:40.019Z,5.90
2019-04-22T20:41:26.278Z,7.17
2019-04-22T20:44:32.385Z,5.87
2019-04-22T20:47:09.362Z,6.07
2019-04-22T20:50:05.461Z,5.77
2019-04-22T20:52:59.001Z,6.17
2019-04-22T20:55:44.973Z,5.87
2019-04-22T20:58:43.181Z,5.80
2019-04-22T21:01:31.483Z,6.10
2019-04-22T21:04:05.206Z,5.97
2019-04-22T21:07:21.457Z,5.77
2019-04-22T21:13:30.558Z,6.43
2019-04-22T21:16:26.769Z,6.57
2019-04-22T21:19:28.030Z,6.23
2019-04-22T21:22:55.938Z,5.90
2019-04-22T21:25:36.917Z,6.03
2019-04-22T21:28:53.460Z,6.30
2019-04-22T21:31:50.295Z,6.57
2019-04-22T21:34:31.675Z,6.10
2019-04-22T21:37:36.100Z,6.53
2019-04-22T21:40:24.038Z,6.10
2019-04-22T21:43:14.346Z,6.03
2019-04-22T21:46:06.743Z,6.13
2019-04-22T21:49:23.222Z,6.67
2019-04-22T21:52:27.613Z,6.33
2019-04-22T21:55:16.930Z,6.20
2019-04-22T21:58:27.637Z,5.67
2019-04-22T22:01:56.765Z,6.53
2019-04-22T22:07:50.861Z,6.60
2019-04-22T22:10:58.365Z,6.97
2019-04-22T22:13:51.910Z,6.63
2019-04-22T22:16:37.304Z,6.43
2019-04-22T22:19:35.953Z,7.20
2019-04-22T22:25:40.012Z,6.30
2019-04-22T22:31:36.376Z,7.07
2019-04-22T22:34:39.518Z,6.30
2019-04-22T22:37:20.484Z,6.53
2019-04-22T22:40:07.469Z,6.23
2019-04-22T22:50:12.849Z,6.53
2019-04-22T22:53:21.238Z,5.97
2019-04-22T22:55:45.948Z,6.77
2019-04-22T22:58:42.515Z,6.27
2019-04-22T23:02:00.264Z,5.63
2019-04-22T23:04:51.225Z,6.13
2019-04-22T23:07:46.375Z,6.30
2019-04-22T23:10:44.389Z,6.50
2019-04-22T23:16:37.846Z,7.03
2019-04-22T23:19:19.927Z,7.13
2019-04-22T23:23:14.313Z,6.93
2019-04-22T23:26:07.471Z,6.57
2019-04-22T23:28:57.684Z,7.07
2019-04-22T23:31:48.328Z,6.00
2019-04-22T23:34:50.847Z,5.70
2019-04-22T23:37:39.616Z,7.00
2019-04-22T23:40:35.733Z,4.93
2019-04-22T23:46:30.685Z,6.03
2019-04-22T23:49:32.631Z,6.27
2019-04-22T23:52:30.659Z,6.10
2019-04-22T23:58:41.788Z,5.40
